createdAt,value
2023-07-04T00:01:21.118Z,57.51
2023-07-04T00:03:53.176Z,57.48
2023-07-04T00:06:21.928Z,57.31
2023-07-04T00:08:51.054Z,57.35
2023-07-04T00:11:21.806Z,57.08
2023-07-04T00:13:51.717Z,57.14
2023-07-04T00:16:19.675Z,57.21
2023-07-04T00:18:47.565Z,57.21
2023-07-04T00:21:16.691Z,57.27
2023-07-04T00:23:47.409Z,56.90
2023-07-04T00:26:17.366Z,57.29
2023-07-04T00:28:47.724Z,57.10
2023-07-04T00:31:18.079Z,57.24
2023-07-04T00:33:47.214Z,57.33
2023-07-04T00:36:17.513Z,57.34
2023-07-04T00:38:50.041Z,58.24
2023-07-04T00:41:21.579Z,58.86
2023-07-04T00:44:00.601Z,60.73
2023-07-04T00:46:41.470Z,64.69
2023-07-04T00:49:19.361Z,64.62
2023-07-04T00:51:59.493Z,67.46
2023-07-04T00:54:31.942Z,67.21
2023-07-04T00:57:04.027Z,67.44
2023-07-04T00:59:44.371Z,69.00
2023-07-04T01:02:13.303Z,67.68
2023-07-04T01:04:42.761Z,68.34
2023-07-04T01:07:32.500Z,71.22
2023-07-04T01:10:13.474Z,71.21
2023-07-04T01:12:43.234Z,69.97
2023-07-04T01:15:13.228Z,69.94
2023-07-04T01:17:43.170Z,70.87
2023-07-04T01:20:13.611Z,70.52
2023-07-04T01:22:51.266Z,72.06
2023-07-04T01:25:28.747Z,70.99
2023-07-04T01:28:01.718Z,71.08
2023-07-04T01:30:31.401Z,70.98
2023-07-04T01:33:00.563Z,70.86
2023-07-04T01:35:30.008Z,70.81
2023-07-04T01:38:00.368Z,70.82
2023-07-04T01:40:28.259Z,70.06
2023-07-04T01:42:56.053Z,69.58
2023-07-04T01:45:25.508Z,69.32
2023-07-04T01:47:54.197Z,69.27
2023-07-04T01:50:22.686Z,68.90
2023-07-04T01:52:50.517Z,68.68
2023-07-04T01:55:18.392Z,68.98
2023-07-04T01:57:47.467Z,68.40
2023-07-04T02:00:15.988Z,68.13
2023-07-04T02:02:57.474Z,67.76
2023-07-04T02:05:25.796Z,67.39
2023-07-04T02:07:53.622Z,67.51
2023-07-04T02:10:21.430Z,67.01
2023-07-04T02:12:49.259Z,67.09
2023-07-04T02:15:18.133Z,66.98
2023-07-04T02:17:46.075Z,66.92
2023-07-04T02:20:17.431Z,67.13
2023-07-04T02:22:45.924Z,66.96
2023-07-04T02:25:13.724Z,67.11
2023-07-04T02:27:42.142Z,68.02
2023-07-04T02:30:10.647Z,68.77
2023-07-04T02:32:38.412Z,68.80
2023-07-04T02:35:08.322Z,69.00
2023-07-04T02:37:39.586Z,70.31
2023-07-04T02:40:08.508Z,70.71
2023-07-04T02:42:36.329Z,70.32
2023-07-04T02:45:05.046Z,70.62
2023-07-04T02:47:33.159Z,70.80
2023-07-04T02:50:03.638Z,71.80
2023-07-04T02:52:32.240Z,71.08
2023-07-04T02:55:01.317Z,71.04
2023-07-04T02:57:29.711Z,71.83
2023-07-04T03:00:00.332Z,71.30
2023-07-04T03:02:29.995Z,71.81
2023-07-04T03:04:58.847Z,73.40
2023-07-04T03:07:29.621Z,72.34
2023-07-04T03:09:58.241Z,72.92
2023-07-04T03:12:30.366Z,73.75
2023-07-04T03:14:59.642Z,73.74
2023-07-04T03:17:29.061Z,73.87
2023-07-04T03:19:57.397Z,73.94
2023-07-04T03:22:25.247Z,73.74
2023-07-04T03:24:53.210Z,73.80
2023-07-04T03:27:21.102Z,73.88
2023-07-04T03:29:50.456Z,73.77
2023-07-04T03:32:19.313Z,73.94
2023-07-04T03:34:47.281Z,74.76
2023-07-04T03:37:15.255Z,74.45
2023-07-04T03:39:43.390Z,75.04
2023-07-04T03:42:11.125Z,75.74
2023-07-04T03:44:39.284Z,76.06
2023-07-04T03:47:08.589Z,75.87
2023-07-04T03:49:36.801Z,76.13
2023-07-04T03:52:05.084Z,76.31
2023-07-04T03:54:32.826Z,76.05
2023-07-04T03:57:00.625Z,76.03
2023-07-04T03:59:28.619Z,76.25
2023-07-04T04:01:56.524Z,76.33
2023-07-04T04:04:25.750Z,76.13
2023-07-04T04:06:56.402Z,75.82
2023-07-04T04:09:24.186Z,74.86
2023-07-04T04:11:52.266Z,74.63
2023-07-04T04:14:20.133Z,74.57
2023-07-04T04:16:47.966Z,74.06
2023-07-04T04:19:15.817Z,74.49
2023-07-04T04:21:44.925Z,74.30
2023-07-04T04:24:12.681Z,74.44
2023-07-04T04:26:41.474Z,74.65
2023-07-04T04:29:09.797Z,74.81
2023-07-04T04:31:38.619Z,74.69
2023-07-04T04:34:07.030Z,74.88
2023-07-04T04:36:35.554Z,74.99
2023-07-04T04:39:05.040Z,74.70
2023-07-04T04:41:33.176Z,74.36
2023-07-04T04:44:05.486Z,74.42
2023-07-04T04:46:33.776Z,74.63
2023-07-04T04:49:03.743Z,73.78
2023-07-04T04:51:32.693Z,73.69
2023-07-04T04:54:02.178Z,73.44
2023-07-04T04:56:31.692Z,72.95
2023-07-04T04:58:59.598Z,72.77
2023-07-04T05:01:27.438Z,72.80
2023-07-04T05:03:56.868Z,72.72
2023-07-04T05:06:26.341Z,73.00
2023-07-04T05:08:54.862Z,73.03
2023-07-04T05:11:22.860Z,72.80
2023-07-04T05:13:53.090Z,72.71
2023-07-04T05:16:23.014Z,72.48
2023-07-04T05:18:53.282Z,72.84
2023-07-04T05:21:23.129Z,72.17
2023-07-04T05:23:52.690Z,72.23
2023-07-04T05:26:22.874Z,72.00
2023-07-04T05:28:53.004Z,71.62
2023-07-04T05:31:23.189Z,71.21
2023-07-04T05:33:50.974Z,70.91
2023-07-04T05:36:22.715Z,70.87
2023-07-04T05:38:51.456Z,71.20
2023-07-04T05:41:22.626Z,71.34
2023-07-04T05:43:52.302Z,71.43
2023-07-04T05:46:20.545Z,71.17
2023-07-04T05:48:48.805Z,71.27
2023-07-04T05:51:18.578Z,70.92
2023-07-04T05:53:49.697Z,71.41
2023-07-04T05:56:20.478Z,70.78
2023-07-04T05:58:50.645Z,71.01
2023-07-04T06:01:22.262Z,71.58
2023-07-04T06:03:50.653Z,70.82
2023-07-04T06:06:20.537Z,70.49
2023-07-04T06:08:48.671Z,70.30
2023-07-04T06:11:17.457Z,69.54
2023-07-04T06:13:45.378Z,69.38
2023-07-04T06:16:13.385Z,69.00
2023-07-04T06:18:43.600Z,67.54
2023-07-04T06:21:13.283Z,65.96
2023-07-04T06:23:42.111Z,66.07
2023-07-04T06:26:11.951Z,65.90
2023-07-04T06:28:40.951Z,66.81
2023-07-04T06:31:12.444Z,66.40
2023-07-04T06:33:42.148Z,66.35
2023-07-04T06:36:13.543Z,66.20
2023-07-04T06:38:41.393Z,65.47
2023-07-04T06:41:11.193Z,64.93
2023-07-04T06:43:40.587Z,64.50
2023-07-04T06:46:08.297Z,64.13
2023-07-04T06:48:36.064Z,62.66
2023-07-04T06:51:05.434Z,61.89
2023-07-04T06:53:35.668Z,61.41
2023-07-04T06:56:08.487Z,60.27
2023-07-04T06:58:41.173Z,60.10
2023-07-04T07:01:09.955Z,59.56
2023-07-04T07:03:38.011Z,58.39
2023-07-04T07:06:07.645Z,57.93
2023-07-04T07:08:37.413Z,57.75
2023-07-04T07:11:07.857Z,57.05
2023-07-04T07:13:36.485Z,58.30
2023-07-04T07:16:09.602Z,58.40
2023-07-04T07:18:38.336Z,59.45
2023-07-04T07:21:07.812Z,60.19
2023-07-04T07:23:38.446Z,60.61
2023-07-04T07:26:08.861Z,60.89
2023-07-04T07:28:40.441Z,60.49
2023-07-04T07:31:11.043Z,61.11
2023-07-04T07:33:40.981Z,60.01
2023-07-04T07:36:14.303Z,60.81
2023-07-04T07:38:44.241Z,60.83
2023-07-04T07:41:12.138Z,61.28
2023-07-04T07:43:41.260Z,61.39
2023-07-04T07:46:09.838Z,61.91
2023-07-04T07:48:38.403Z,60.82
2023-07-04T07:51:07.647Z,60.81
2023-07-04T07:53:36.724Z,59.15
2023-07-04T07:56:07.478Z,57.82
2023-07-04T07:58:35.837Z,57.56
2023-07-04T08:01:12.289Z,55.39
2023-07-04T08:03:40.466Z,54.60
2023-07-04T08:06:09.290Z,54.36
2023-07-04T08:08:37.085Z,54.64
2023-07-04T08:11:06.347Z,54.40
2023-07-04T08:13:34.434Z,54.26
2023-07-04T08:16:02.303Z,53.18
2023-07-04T08:18:30.208Z,52.64
2023-07-04T08:20:58.627Z,52.35
2023-07-04T08:23:26.888Z,52.59
2023-07-04T08:25:54.813Z,52.63
2023-07-04T08:28:24.553Z,52.87
2023-07-04T08:30:52.676Z,52.16
2023-07-04T08:33:20.827Z,53.02
2023-07-04T08:35:59.125Z,52.50
2023-07-04T08:38:27.402Z,52.98
2023-07-04T08:40:55.432Z,52.90
2023-07-04T08:43:32.481Z,51.80
2023-07-04T08:46:00.834Z,50.86
2023-07-04T08:48:30.494Z,51.05
2023-07-04T08:51:00.867Z,50.58
2023-07-04T08:53:29.794Z,50.18
2023-07-04T08:56:02.706Z,49.79
2023-07-04T08:58:39.054Z,49.75
2023-07-04T09:01:12.277Z,49.01
2023-07-04T09:03:52.020Z,50.00
2023-07-04T09:06:31.730Z,50.27
2023-07-04T09:09:11.032Z,50.09
2023-07-04T09:11:38.875Z,50.15
2023-07-04T09:14:16.400Z,49.96
2023-07-04T09:16:50.024Z,49.87
2023-07-04T09:19:20.505Z,49.70
2023-07-04T09:21:48.489Z,48.43
2023-07-04T09:24:16.613Z,47.25
2023-07-04T09:26:47.213Z,47.41
2023-07-04T09:29:21.098Z,46.28
2023-07-04T09:31:53.361Z,46.22
2023-07-04T09:34:24.476Z,45.70
2023-07-04T09:36:53.971Z,46.77
2023-07-04T09:39:21.763Z,46.19
2023-07-04T09:42:13.075Z,45.84
2023-07-04T09:44:48.603Z,46.69
2023-07-04T09:47:25.067Z,46.40
2023-07-04T09:50:11.656Z,45.12
2023-07-04T09:52:40.527Z,45.33
2023-07-04T09:55:14.665Z,45.40
2023-07-04T09:57:42.757Z,44.15
2023-07-04T10:00:24.262Z,42.98
2023-07-04T10:02:55.796Z,42.71
2023-07-04T10:05:28.450Z,41.50
2023-07-04T10:08:09.229Z,39.92
2023-07-04T10:10:40.148Z,40.85
2023-07-04T10:13:09.989Z,41.33
2023-07-04T10:15:42.127Z,40.90
2023-07-04T10:18:25.753Z,40.19
2023-07-04T10:20:56.953Z,40.27
2023-07-04T10:23:27.433Z,39.34
2023-07-04T10:25:57.063Z,39.52
2023-07-04T10:28:27.632Z,38.29
2023-07-04T10:31:00.945Z,38.73
2023-07-04T10:33:37.583Z,38.58
2023-07-04T10:36:07.697Z,39.97
2023-07-04T10:38:42.176Z,39.53
2023-07-04T10:41:19.474Z,40.08
2023-07-04T10:43:54.369Z,39.56
2023-07-04T10:46:27.306Z,35.78
2023-07-04T10:49:02.059Z,36.87
2023-07-04T10:51:34.266Z,37.61
2023-07-04T10:54:02.404Z,38.50
2023-07-04T10:56:34.151Z,37.58
2023-07-04T10:59:07.441Z,36.95
2023-07-04T11:01:41.918Z,36.85
2023-07-04T11:04:14.972Z,36.50
2023-07-04T11:06:47.001Z,36.16
2023-07-04T11:09:17.239Z,37.01
2023-07-04T11:11:49.029Z,35.49
2023-07-04T11:14:22.635Z,36.17
2023-07-04T11:16:55.525Z,35.52
2023-07-04T11:19:29.303Z,35.06
2023-07-04T11:22:19.690Z,34.53
2023-07-04T11:24:53.044Z,35.62
2023-07-04T11:27:23.686Z,35.06
2023-07-04T11:29:54.350Z,34.50
2023-07-04T11:32:27.881Z,34.71
2023-07-04T11:35:03.952Z,34.58
2023-07-04T11:37:33.399Z,33.71
2023-07-04T11:40:05.951Z,35.95
2023-07-04T11:42:41.058Z,35.82
2023-07-04T11:45:14.216Z,36.55
2023-07-04T11:47:50.894Z,36.71
2023-07-04T11:50:21.589Z,36.81
2023-07-04T11:52:57.597Z,36.50
2023-07-04T11:55:30.788Z,36.46
2023-07-04T11:58:01.745Z,35.93
2023-07-04T12:01:07.681Z,36.04
2023-07-04T12:04:11.604Z,35.22
2023-07-04T12:06:58.622Z,34.73
2023-07-04T12:09:40.516Z,35.70
2023-07-04T12:12:17.438Z,34.85
2023-07-04T12:14:50.054Z,35.72
2023-07-04T12:17:19.782Z,36.21
2023-07-04T12:19:48.892Z,35.91
2023-07-04T12:22:18.905Z,35.85
2023-07-04T12:24:48.206Z,35.17
2023-07-04T12:27:15.992Z,35.32
2023-07-04T12:32:19.518Z,33.33
2023-07-04T12:37:20.990Z,34.17
2023-07-04T12:39:50.603Z,33.52
2023-07-04T12:42:23.576Z,33.81
2023-07-04T12:44:52.421Z,34.85
2023-07-04T12:47:26.276Z,34.97
2023-07-04T12:50:00.249Z,35.06
2023-07-04T12:52:32.849Z,34.62
2023-07-04T12:55:03.320Z,34.31
2023-07-04T12:57:32.109Z,34.45
2023-07-04T13:00:11.594Z,33.51
2023-07-04T13:02:39.682Z,34.79
2023-07-04T13:05:13.918Z,34.62
2023-07-04T13:07:45.105Z,34.64
2023-07-04T13:10:21.589Z,33.57
2023-07-04T13:12:49.386Z,35.20
2023-07-04T13:15:25.665Z,33.89
2023-07-04T13:17:59.121Z,34.41
2023-07-04T13:20:30.186Z,34.02
2023-07-04T13:25:49.918Z,34.15
2023-07-04T13:32:59.820Z,34.15
2023-07-04T13:33:43.070Z,34.96
2023-07-04T13:36:14.158Z,34.35
2023-07-04T13:41:14.790Z,36.21
2023-07-04T13:46:13.873Z,36.38
2023-07-04T13:48:41.635Z,36.17
2023-07-04T13:51:09.425Z,35.55
2023-07-04T13:53:38.580Z,34.77
2023-07-04T13:56:06.870Z,35.45
2023-07-04T13:58:36.098Z,35.65
2023-07-04T14:06:06.959Z,34.84
2023-07-04T14:08:39.101Z,35.04
2023-07-04T14:11:08.728Z,35.63
2023-07-04T14:13:36.677Z,35.69
2023-07-04T14:21:10.612Z,35.45
2023-07-04T14:23:40.232Z,34.96
2023-07-04T14:26:14.611Z,35.41
2023-07-04T14:28:42.412Z,35.89
2023-07-04T14:31:10.418Z,36.05
2023-07-04T14:33:38.730Z,36.20
2023-07-04T14:36:07.389Z,36.10
2023-07-04T14:38:36.042Z,36.33
2023-07-04T14:43:36.562Z,36.69
2023-07-04T14:46:07.839Z,37.28
2023-07-04T14:48:36.442Z,37.68
2023-07-04T14:51:06.295Z,37.95
2023-07-04T14:53:34.731Z,38.18
2023-07-04T14:56:04.726Z,38.43
2023-07-04T14:58:33.879Z,38.52
2023-07-04T15:01:02.230Z,38.82
2023-07-04T15:03:31.023Z,38.94
2023-07-04T15:05:59.735Z,38.92
2023-07-04T15:08:27.775Z,38.68
2023-07-04T15:10:56.229Z,37.94
2023-07-04T15:13:24.664Z,38.26
2023-07-04T15:15:58.343Z,38.54
2023-07-04T15:18:26.498Z,39.17
2023-07-04T15:20:54.701Z,39.24
2023-07-04T15:23:22.402Z,38.83
2023-07-04T15:25:52.652Z,38.76
2023-07-04T15:28:21.953Z,38.66
2023-07-04T15:30:52.645Z,37.85
2023-07-04T15:33:22.446Z,38.64
2023-07-04T15:35:53.993Z,38.51
2023-07-04T15:38:23.249Z,38.07
2023-07-04T15:40:52.787Z,37.91
2023-07-04T15:43:22.192Z,37.99
2023-07-04T15:45:52.671Z,37.54
2023-07-04T15:48:21.917Z,37.77
2023-07-04T15:50:49.948Z,37.30
2023-07-04T15:53:17.723Z,37.87
2023-07-04T15:55:45.437Z,37.88
2023-07-04T15:58:13.158Z,37.12
2023-07-04T16:00:41.214Z,37.72
2023-07-04T16:03:09.022Z,37.22
2023-07-04T16:05:42.480Z,37.09
2023-07-04T16:08:10.324Z,37.42
2023-07-04T16:10:38.395Z,37.21
2023-07-04T16:13:06.748Z,36.74
2023-07-04T16:15:37.311Z,36.57
2023-07-04T16:18:05.668Z,36.65
2023-07-04T16:20:34.316Z,37.08
2023-07-04T16:23:03.393Z,36.89
2023-07-04T16:25:31.283Z,37.36
2023-07-04T16:27:59.016Z,37.41
2023-07-04T16:30:26.830Z,37.59
2023-07-04T16:32:54.781Z,37.46
2023-07-04T16:35:22.518Z,37.61
2023-07-04T16:37:50.517Z,38.23
2023-07-04T16:40:19.652Z,37.77
2023-07-04T16:42:47.408Z,38.28
2023-07-04T16:45:15.409Z,38.19
2023-07-04T16:47:43.401Z,38.00
2023-07-04T16:50:29.342Z,38.41
2023-07-04T16:52:59.251Z,38.59
2023-07-04T16:55:29.053Z,39.12
2023-07-04T16:57:56.859Z,39.12
2023-07-04T17:00:25.000Z,39.56
2023-07-04T17:02:53.353Z,38.80
2023-07-04T17:05:21.482Z,39.36
2023-07-04T17:07:49.261Z,38.90
2023-07-04T17:10:17.128Z,38.92
2023-07-04T17:12:46.209Z,39.19
2023-07-04T17:15:14.007Z,39.38
2023-07-04T17:17:42.037Z,39.36
2023-07-04T17:20:10.775Z,39.54
2023-07-04T17:22:38.919Z,39.64
2023-07-04T17:25:14.480Z,39.92
2023-07-04T17:27:42.882Z,40.12
2023-07-04T17:30:12.720Z,40.47
2023-07-04T17:32:40.477Z,40.93
2023-07-04T17:35:10.459Z,40.93
2023-07-04T17:37:38.541Z,41.20
2023-07-04T17:40:07.476Z,41.27
2023-07-04T17:42:35.617Z,42.00
2023-07-04T17:45:03.633Z,41.90
2023-07-04T17:47:32.961Z,41.74
2023-07-04T17:50:00.719Z,42.00
2023-07-04T17:52:29.160Z,42.08
2023-07-04T17:54:59.044Z,42.75
2023-07-04T17:57:28.548Z,42.59
2023-07-04T17:59:57.013Z,42.76
2023-07-04T18:02:25.135Z,43.25
2023-07-04T18:04:55.013Z,43.46
2023-07-04T18:07:23.002Z,43.45
2023-07-04T18:09:52.958Z,43.68
2023-07-04T18:12:26.720Z,43.82
2023-07-04T18:14:56.208Z,44.04
2023-07-04T18:17:24.167Z,44.24
2023-07-04T18:19:57.968Z,44.61
2023-07-04T18:22:27.066Z,45.32
2023-07-04T18:24:56.085Z,45.07
2023-07-04T18:27:24.627Z,45.38
2023-07-04T18:29:53.424Z,45.66
2023-07-04T18:32:23.040Z,45.58
2023-07-04T18:34:56.040Z,46.09
2023-07-04T18:37:26.945Z,46.11
2023-07-04T18:39:54.693Z,46.51
2023-07-04T18:42:22.400Z,47.00
2023-07-04T18:44:50.228Z,47.50
2023-07-04T18:47:18.040Z,47.54
2023-07-04T18:49:45.791Z,47.73
2023-07-04T18:52:14.938Z,48.29
2023-07-04T18:54:42.817Z,48.81
2023-07-04T18:57:11.311Z,49.07
2023-07-04T18:59:39.133Z,49.24
2023-07-04T19:02:08.277Z,49.54
2023-07-04T19:04:36.873Z,49.79
2023-07-04T19:07:04.769Z,50.17
2023-07-04T19:09:33.876Z,50.16
2023-07-04T19:12:02.078Z,50.86
2023-07-04T19:14:31.859Z,51.33
2023-07-04T19:17:00.772Z,51.67
2023-07-04T19:19:30.427Z,51.88
2023-07-04T19:22:00.425Z,52.60
2023-07-04T19:24:30.262Z,52.84
2023-07-04T19:27:00.176Z,53.57
2023-07-04T19:29:29.634Z,53.81
2023-07-04T19:32:01.028Z,55.02
2023-07-04T19:34:29.887Z,55.71
2023-07-04T19:36:58.590Z,56.28
2023-07-04T19:39:28.278Z,57.25
2023-07-04T19:41:56.040Z,57.13
2023-07-04T19:44:25.273Z,57.79
2023-07-04T19:46:53.362Z,58.01
2023-07-04T19:49:21.538Z,58.23
2023-07-04T19:51:49.274Z,59.16
2023-07-04T19:54:17.129Z,58.83
2023-07-04T19:56:45.674Z,58.71
2023-07-04T19:59:13.557Z,59.18
2023-07-04T20:01:42.768Z,59.61
2023-07-04T20:04:10.526Z,59.74
2023-07-04T20:06:39.141Z,59.59
2023-07-04T20:09:07.095Z,59.79
2023-07-04T20:11:34.858Z,59.70
2023-07-04T20:14:03.727Z,59.64
2023-07-04T20:16:33.461Z,59.92
2023-07-04T20:19:03.264Z,59.42
2023-07-04T20:21:31.309Z,59.31
2023-07-04T20:23:59.265Z,59.05
2023-07-04T20:26:29.837Z,58.80
2023-07-04T20:28:59.673Z,58.79
2023-07-04T20:31:27.891Z,58.59
2023-07-04T20:33:56.005Z,58.98
2023-07-04T20:36:25.090Z,58.79
2023-07-04T20:38:52.921Z,58.85
2023-07-04T20:41:20.906Z,58.62
2023-07-04T20:43:48.687Z,58.71
2023-07-04T20:46:16.535Z,58.72
2023-07-04T20:48:44.294Z,58.64
2023-07-04T20:51:13.522Z,58.97
2023-07-04T20:53:44.341Z,58.89
2023-07-04T20:56:14.093Z,59.14
2023-07-04T20:58:42.220Z,58.97
2023-07-04T21:01:10.484Z,59.21
2023-07-04T21:03:38.635Z,59.96
2023-07-04T21:06:07.526Z,61.45
2023-07-04T21:08:36.551Z,63.87
2023-07-04T21:11:06.670Z,63.61
2023-07-04T21:13:37.013Z,63.27
2023-07-04T21:16:07.177Z,63.41
2023-07-04T21:18:36.107Z,63.46
2023-07-04T21:21:05.516Z,63.57
2023-07-04T21:23:33.401Z,63.95
2023-07-04T21:26:02.194Z,64.35
2023-07-04T21:28:31.466Z,65.22
2023-07-04T21:31:03.940Z,66.14
2023-07-04T21:33:32.099Z,65.29
2023-07-04T21:36:01.188Z,66.95
2023-07-04T21:38:29.434Z,66.46
2023-07-04T21:40:57.624Z,66.63
2023-07-04T21:43:25.619Z,66.94
2023-07-04T21:45:58.293Z,68.73
2023-07-04T21:48:27.597Z,67.88
2023-07-04T21:50:55.719Z,68.48
2023-07-04T21:53:23.730Z,69.06
2023-07-04T21:55:52.331Z,70.02
2023-07-04T21:58:21.501Z,69.80
2023-07-04T22:00:50.213Z,70.11
2023-07-04T22:03:20.225Z,70.01
2023-07-04T22:05:48.691Z,70.26
2023-07-04T22:08:19.202Z,70.62
2023-07-04T22:10:56.171Z,72.66
2023-07-04T22:13:24.092Z,71.41
2023-07-04T22:15:52.039Z,72.00
2023-07-04T22:18:21.402Z,72.12
2023-07-04T22:20:49.482Z,71.82
2023-07-04T22:23:17.287Z,71.57
2023-07-04T22:25:45.102Z,71.76
2023-07-04T22:28:12.952Z,71.83
2023-07-04T22:30:40.996Z,72.01
2023-07-04T22:33:09.123Z,72.70
2023-07-04T22:35:38.461Z,72.30
2023-07-04T22:38:06.270Z,72.70
2023-07-04T22:40:34.102Z,72.35
2023-07-04T22:43:01.866Z,72.72
2023-07-04T22:45:29.709Z,72.58
2023-07-04T22:47:57.596Z,72.38
2023-07-04T22:50:25.420Z,72.29
2023-07-04T22:52:54.562Z,72.34
2023-07-04T22:55:22.309Z,71.91
2023-07-04T22:57:50.121Z,71.97
2023-07-04T23:00:18.958Z,72.31
2023-07-04T23:02:49.077Z,71.98
2023-07-04T23:05:17.200Z,71.58
2023-07-04T23:07:44.982Z,71.73
2023-07-04T23:10:14.267Z,71.91
2023-07-04T23:12:42.026Z,72.55
2023-07-04T23:15:10.748Z,71.61
2023-07-04T23:17:38.662Z,70.91
2023-07-04T23:20:07.606Z,70.85
2023-07-04T23:22:35.443Z,70.50
2023-07-04T23:25:03.772Z,70.08
2023-07-04T23:27:33.123Z,70.62
2023-07-04T23:30:01.051Z,70.15
2023-07-04T23:32:28.832Z,69.89
2023-07-04T23:34:56.718Z,69.84
2023-07-04T23:37:25.109Z,70.02
2023-07-04T23:39:53.335Z,69.76
2023-07-04T23:42:21.149Z,69.89
2023-07-04T23:44:50.417Z,69.79
2023-07-04T23:47:18.227Z,69.91
2023-07-04T23:49:46.563Z,69.58
2023-07-04T23:52:14.468Z,69.40
2023-07-04T23:54:42.223Z,69.72
2023-07-04T23:57:10.325Z,69.03
2023-07-04T23:59:38.286Z,69.14
